Time;durP1;ratioP1;P1;durP2;ratioP2;P2;SDS_P1;SDS_P2;PMS_P1;PMS_P2;Temp;Humidity;BMP_temperature;BMP_pressure;BME280_temperature;BME280_humidity;BME280_pressure;Samples;Min_cycle;Max_cycle;Signal;HPM_P1;HPM_P2
2021/09/14 00:01:37;;;;;;;5.82;4.05;;;;;;;;;;5045785;28;20030;-53
2021/09/14 00:04:03;;;;;;;9.50;3.95;;;;;;;;;;5034472;28;20359;-53
2021/09/14 00:06:29;;;;;;;11.05;4.25;;;;;;;;;;5035334;28;20087;-53
2021/09/14 00:08:55;;;;;;;6.43;4.22;;;;;;;;;;5034895;28;20068;-53
2021/09/14 00:11:21;;;;;;;7.97;4.75;;;;;;;;;;5044358;28;20573;-53
2021/09/14 00:13:47;;;;;;;6.95;4.35;;;;;;;;;;5053467;28;20120;-53
2021/09/14 00:16:13;;;;;;;6.20;4.25;;;;;;;;;;5049737;28;20391;-53
2021/09/14 00:18:39;;;;;;;7.35;3.97;;;;;;;;;;5031442;28;20033;-53
2021/09/14 00:21:05;;;;;;;9.77;4.30;;;;;;;;;;5038155;28;20259;-53
2021/09/14 00:23:32;;;;;;;6.00;3.22;;;;;;;;;;5053708;28;20070;-53
2021/09/14 00:25:57;;;;;;;6.85;4.43;;;;;;;;;;5045605;28;20029;-53
2021/09/14 00:28:23;;;;;;;6.50;4.45;;;;;;;;;;5052541;28;20512;-53
2021/09/14 00:30:49;;;;;;;9.45;4.55;;;;;;;;;;5054049;28;20025;-53
2021/09/14 00:33:16;;;;;;;6.07;4.07;;;;;;;;;;5033974;28;20037;-53
2021/09/14 00:35:42;;;;;;;8.15;4.20;;;;;;;;;;5033726;28;20030;-53
2021/09/14 00:38:08;;;;;;;6.97;3.95;;;;;;;;;;5034349;28;20036;-53
2021/09/14 00:40:34;;;;;;;6.07;4.45;;;;;;;;;;5037763;28;20025;-53
2021/09/14 00:43:00;;;;;;;6.53;4.03;;;;;;;;;;5053622;28;20211;-53
2021/09/14 00:45:26;;;;;;;7.45;4.25;;;;;;;;;;5053045;28;20021;-53
2021/09/14 00:47:52;;;;;;;13.32;4.32;;;;;;;;;;5037524;28;20026;-53
2021/09/14 00:50:19;;;;;;;5.47;4.07;;;;;;;;;;5034455;28;20018;-53
2021/09/14 00:52:45;;;;;;;8.55;4.50;;;;;;;;;;5034245;28;20033;-53
2021/09/14 00:55:11;;;;;;;9.07;4.68;;;;;;;;;;5033707;28;20104;-53
2021/09/14 00:57:37;;;;;;;6.55;4.22;;;;;;;;;;5053414;28;20017;-53
2021/09/14 01:00:04;;;;;;;7.65;4.47;;;;;;;;;;5053737;28;20028;-53
2021/09/14 01:02:30;;;;;;;9.52;5.50;;;;;;;;;;5041386;28;20022;-53
2021/09/14 01:04:57;;;;;;;8.63;4.57;;;;;;;;;;5032717;28;20025;-53
2021/09/14 01:07:23;;;;;;;8.82;4.85;;;;;;;;;;5033899;28;20071;-53
2021/09/14 01:09:50;;;;;;;9.35;5.13;;;;;;;;;;5033479;28;20026;-53
2021/09/14 01:12:19;;;;;;;6.43;4.13;;;;;;;;;;5050651;28;20043;-53
2021/09/14 01:14:56;;;;;;;12.45;5.10;;;;;;;;;;5052868;28;20025;-53
2021/09/14 01:17:22;;;;;;;7.55;4.95;;;;;;;;;;5043680;28;20033;-53
2021/09/14 01:19:48;;;;;;;7.55;4.70;;;;;;;;;;5033323;28;20022;-53
2021/09/14 01:22:15;;;;;;;7.18;4.85;;;;;;;;;;5033597;28;20072;-53
2021/09/14 01:24:41;;;;;;;8.18;4.32;;;;;;;;;;5032227;28;20442;-53
2021/09/14 01:27:07;;;;;;;9.38;5.50;;;;;;;;;;5045444;28;20124;-53
2021/09/14 01:32:18;;;;;;;11.70;4.55;;;;;;;;;;5051993;28;20138;-53
2021/09/14 01:34:44;;;;;;;7.60;4.32;;;;;;;;;;5052543;28;20043;-53
2021/09/14 01:37:10;;;;;;;8.65;4.40;;;;;;;;;;5052917;28;20057;-53
2021/09/14 01:39:36;;;;;;;7.85;3.97;;;;;;;;;;5053021;28;20060;-53
2021/09/14 01:42:02;;;;;;;11.10;4.30;;;;;;;;;;5049289;28;20037;-53
2021/09/14 01:44:28;;;;;;;5.95;4.15;;;;;;;;;;5052187;28;20031;-53
2021/09/14 01:46:54;;;;;;;7.40;4.40;;;;;;;;;;5049310;28;20418;-53
2021/09/14 01:49:20;;;;;;;12.20;4.35;;;;;;;;;;5032998;28;20029;-53
2021/09/14 01:51:46;;;;;;;8.55;4.25;;;;;;;;;;5033221;28;20156;-53
2021/09/14 01:54:12;;;;;;;8.65;4.15;;;;;;;;;;5032235;28;20017;-53
2021/09/14 01:56:38;;;;;;;8.65;4.95;;;;;;;;;;5044926;28;20028;-53
2021/09/14 01:59:05;;;;;;;9.23;5.05;;;;;;;;;;5052628;28;20406;-53
2021/09/14 02:01:35;;;;;;;13.82;4.88;;;;;;;;;;5052091;28;20079;-53
2021/09/14 02:04:18;;;;;;;8.32;5.22;;;;;;;;;;5031434;28;20471;-53
2021/09/14 02:56:24;;;;;;;10.23;6.03;;;;;;;;;;5039866;28;20067;-53
2021/09/14 02:58:50;;;;;;;10.68;5.28;;;;;;;;;;5033732;28;20033;-53
2021/09/14 03:01:17;;;;;;;8.40;5.10;;;;;;;;;;5033731;28;20029;-53
2021/09/14 03:03:46;;;;;;;8.43;5.18;;;;;;;;;;5032043;28;20491;-53
2021/09/14 03:06:13;;;;;;;7.75;4.85;;;;;;;;;;5033796;28;20030;-53
2021/09/14 03:08:40;;;;;;;8.65;4.65;;;;;;;;;;5035379;28;20080;-53
2021/09/14 03:11:09;;;;;;;7.05;4.32;;;;;;;;;;5042870;28;20028;-53
2021/09/14 03:13:36;;;;;;;10.48;4.82;;;;;;;;;;5046859;28;20037;-53
2021/09/14 03:16:03;;;;;;;8.20;4.30;;;;;;;;;;5055672;28;20375;-53
2021/09/14 03:18:29;;;;;;;7.88;4.28;;;;;;;;;;5054572;28;20119;-53
2021/09/14 03:20:55;;;;;;;7.32;4.30;;;;;;;;;;5055536;28;20457;-53
2021/09/14 03:23:20;;;;;;;8.18;4.13;;;;;;;;;;5055938;28;20120;-53
2021/09/14 03:25:46;;;;;;;7.38;4.63;;;;;;;;;;5044422;28;20033;-53
2021/09/14 03:28:12;;;;;;;6.03;3.72;;;;;;;;;;5053689;28;20032;-53
2021/09/14 03:30:38;;;;;;;7.50;4.53;;;;;;;;;;5055494;28;20025;-53
2021/09/14 03:33:05;;;;;;;9.80;4.65;;;;;;;;;;5049082;28;20033;-53
2021/09/14 03:35:31;;;;;;;8.10;4.85;;;;;;;;;;5033711;28;20025;-53
2021/09/14 03:37:57;;;;;;;6.60;4.53;;;;;;;;;;5035127;28;20044;-53
2021/09/14 03:40:23;;;;;;;8.23;5.43;;;;;;;;;;5035330;28;20412;-53
2021/09/14 03:42:49;;;;;;;10.20;5.82;;;;;;;;;;5049135;28;20032;-53
2021/09/14 03:45:15;;;;;;;11.95;5.75;;;;;;;;;;5054300;28;20025;-52
2021/09/14 03:47:41;;;;;;;15.65;5.97;;;;;;;;;;5052603;28;20032;-53
2021/09/14 03:50:07;;;;;;;10.40;6.38;;;;;;;;;;5034739;28;20029;-53
2021/09/14 03:52:33;;;;;;;9.00;5.82;;;;;;;;;;5034963;28;20302;-52
2021/09/14 03:54:59;;;;;;;8.73;5.93;;;;;;;;;;5033683;28;20056;-53
2021/09/14 03:57:25;;;;;;;9.88;5.70;;;;;;;;;;5033990;28;20318;-53
2021/09/14 03:59:51;;;;;;;10.57;5.97;;;;;;;;;;5034243;28;20454;-53
2021/09/14 04:02:43;;;;;;;10.70;5.93;;;;;;;;;;5032923;28;20068;-53
2021/09/14 04:05:21;;;;;;;10.60;5.30;;;;;;;;;;5053197;28;20086;-53
2021/09/14 04:08:49;;;;;;;9.27;4.75;;;;;;;;;;5034980;28;20467;-52
2021/09/14 04:10:40;;;;;;;7.35;4.80;;;;;;;;;;5034373;28;20370;-53
2021/09/14 04:13:06;;;;;;;8.35;5.13;;;;;;;;;;5050324;28;20363;-53
2021/09/14 04:15:33;;;;;;;7.25;4.85;;;;;;;;;;5054361;28;20025;-53
2021/09/14 04:17:59;;;;;;;10.25;5.28;;;;;;;;;;5051789;28;20584;-53
2021/09/14 04:20:25;;;;;;;8.77;5.45;;;;;;;;;;5035182;28;20333;-53
2021/09/14 04:22:50;;;;;;;7.85;5.45;;;;;;;;;;5034319;28;20037;-52
2021/09/14 04:25:17;;;;;;;11.15;5.90;;;;;;;;;;5034120;28;20018;-53
2021/09/14 04:27:43;;;;;;;9.73;5.45;;;;;;;;;;5046618;28;20033;-53
2021/09/14 04:30:09;;;;;;;10.55;6.32;;;;;;;;;;5054463;28;20036;-53
2021/09/14 04:32:36;;;;;;;12.57;6.15;;;;;;;;;;5054254;28;20469;-53
2021/09/14 04:35:02;;;;;;;10.68;4.95;;;;;;;;;;5035074;28;20399;-53
2021/09/14 04:37:28;;;;;;;7.97;4.95;;;;;;;;;;5034431;28;20018;-53
2021/09/14 04:39:54;;;;;;;7.60;4.72;;;;;;;;;;5034525;28;20040;-53
2021/09/14 04:42:20;;;;;;;9.00;4.82;;;;;;;;;;5043405;28;20469;-53
2021/09/14 04:44:46;;;;;;;8.02;5.07;;;;;;;;;;5053086;28;20485;-53
2021/09/14 04:47:12;;;;;;;7.85;4.47;;;;;;;;;;5053680;28;20112;-52
2021/09/14 04:49:38;;;;;;;10.07;5.05;;;;;;;;;;5039740;28;20128;-53
2021/09/14 04:52:06;;;;;;;7.65;4.88;;;;;;;;;;5034284;28;20159;-53
2021/09/14 04:54:35;;;;;;;7.68;4.72;;;;;;;;;;5033437;28;20036;-53
2021/09/14 04:57:01;;;;;;;7.50;4.20;;;;;;;;;;5040720;28;20561;-53
2021/09/14 04:59:27;;;;;;;11.20;5.13;;;;;;;;;;5053796;28;20021;-53
2021/09/14 05:01:53;;;;;;;8.40;5.35;;;;;;;;;;5054089;28;20029;-53
2021/09/14 05:04:20;;;;;;;8.60;4.70;;;;;;;;;;5042757;28;20029;-53
2021/09/14 05:06:46;;;;;;;8.68;4.38;;;;;;;;;;5032060;28;20363;-53
2021/09/14 05:09:12;;;;;;;7.47;4.85;;;;;;;;;;5033529;28;20436;-53
2021/09/14 05:11:38;;;;;;;12.98;6.50;;;;;;;;;;5037773;28;20159;-52
2021/09/14 05:14:04;;;;;;;10.02;6.07;;;;;;;;;;5052715;28;20036;-53
2021/09/14 05:16:30;;;;;;;13.50;5.28;;;;;;;;;;5053574;28;20082;-53
2021/09/14 05:18:57;;;;;;;11.18;5.22;;;;;;;;;;5046764;28;20026;-53
2021/09/14 05:21:24;;;;;;;5.63;4.22;;;;;;;;;;5033988;28;20107;-53
2021/09/14 05:23:50;;;;;;;6.88;3.85;;;;;;;;;;5032316;28;20037;-53
2021/09/14 05:26:16;;;;;;;5.65;3.60;;;;;;;;;;5034187;28;20032;-53
2021/09/14 05:28:44;;;;;;;10.13;4.22;;;;;;;;;;5052888;28;20127;-53
2021/09/14 05:31:11;;;;;;;6.18;4.57;;;;;;;;;;5053190;28;20029;-53
2021/09/14 05:33:40;;;;;;;8.45;4.22;;;;;;;;;;5049452;28;20099;-53
2021/09/14 05:36:08;;;;;;;10.13;5.15;;;;;;;;;;5033554;28;20076;-53
2021/09/14 05:38:34;;;;;;;8.65;4.38;;;;;;;;;;5032811;28;20113;-53
2021/09/14 05:41:00;;;;;;;8.73;4.25;;;;;;;;;;5033167;28;20030;-53
2021/09/14 05:43:27;;;;;;;12.60;4.82;;;;;;;;;;5051662;28;20116;-52
2021/09/14 05:45:54;;;;;;;6.45;4.45;;;;;;;;;;5051676;28;20191;-53
2021/09/14 05:48:20;;;;;;;9.18;4.50;;;;;;;;;;5052716;28;20446;-53
2021/09/14 05:50:46;;;;;;;9.73;4.10;;;;;;;;;;5033755;28;20034;-53
2021/09/14 05:53:12;;;;;;;6.97;3.88;;;;;;;;;;5032988;28;20041;-53
2021/09/14 05:55:38;;;;;;;7.35;4.20;;;;;;;;;;5032071;28;20032;-53
2021/09/14 05:58:05;;;;;;;6.95;3.80;;;;;;;;;;5048363;28;20459;-53
2021/09/14 06:00:31;;;;;;;5.65;3.50;;;;;;;;;;5049595;28;20033;-53
2021/09/14 06:02:57;;;;;;;6.13;3.65;;;;;;;;;;5043867;28;20034;-53
2021/09/14 06:05:23;;;;;;;7.57;3.92;;;;;;;;;;5039226;28;20108;-53
2021/09/14 06:07:49;;;;;;;5.28;3.67;;;;;;;;;;5041000;28;20029;-53
2021/09/14 06:10:15;;;;;;;7.43;4.82;;;;;;;;;;5042672;28;20104;-53
2021/09/14 06:12:41;;;;;;;6.85;3.50;;;;;;;;;;5043285;28;20043;-53
2021/09/14 06:15:07;;;;;;;5.45;3.58;;;;;;;;;;5042810;28;20029;-54
2021/09/14 06:17:34;;;;;;;7.05;4.10;;;;;;;;;;5041285;28;20156;-53
2021/09/14 06:20:00;;;;;;;8.93;4.95;;;;;;;;;;5032697;28;20303;-54
2021/09/14 06:22:26;;;;;;;11.73;6.20;;;;;;;;;;5041238;28;20014;-53
2021/09/14 06:24:52;;;;;;;9.68;5.28;;;;;;;;;;5051794;28;20434;-54
2021/09/14 06:27:18;;;;;;;12.95;5.45;;;;;;;;;;5051643;28;20059;-53
2021/09/14 06:29:44;;;;;;;9.43;5.47;;;;;;;;;;5051813;28;20029;-53
2021/09/14 06:32:10;;;;;;;9.60;5.60;;;;;;;;;;5052274;28;20040;-53
2021/09/14 06:34:37;;;;;;;11.65;6.40;;;;;;;;;;5050493;28;20417;-54
2021/09/14 06:37:03;;;;;;;12.25;6.85;;;;;;;;;;5052907;28;20346;-54
2021/09/14 06:39:29;;;;;;;13.95;6.88;;;;;;;;;;5051989;28;20031;-54
2021/09/14 06:41:55;;;;;;;12.02;5.68;;;;;;;;;;5046953;28;20284;-54
2021/09/14 06:44:22;;;;;;;17.65;7.97;;;;;;;;;;5049580;28;20234;-54
2021/09/14 06:46:49;;;;;;;12.27;6.25;;;;;;;;;;5052517;28;20071;-54
2021/09/14 06:49:15;;;;;;;17.92;6.80;;;;;;;;;;5050262;28;20100;-53
2021/09/14 06:51:41;;;;;;;15.13;6.47;;;;;;;;;;5032507;28;20025;-54
2021/09/14 06:54:07;;;;;;;13.60;6.72;;;;;;;;;;5031702;28;20048;-53
2021/09/14 06:56:33;;;;;;;9.77;6.55;;;;;;;;;;5033169;28;20025;-54
2021/09/14 06:58:59;;;;;;;16.27;8.90;;;;;;;;;;5042189;28;20108;-53
2021/09/14 07:01:26;;;;;;;13.23;8.10;;;;;;;;;;5052098;28;20041;-53
2021/09/14 07:03:53;;;;;;;17.65;10.25;;;;;;;;;;5031485;28;20431;-54
2021/09/14 07:06:19;;;;;;;19.95;9.38;;;;;;;;;;5031780;28;20098;-53
2021/09/14 07:08:46;;;;;;;22.67;11.88;;;;;;;;;;5032777;28;20026;-54
2021/09/14 07:11:12;;;;;;;21.95;13.73;;;;;;;;;;5035517;28;20104;-54
2021/09/14 07:13:38;;;;;;;26.95;14.65;;;;;;;;;;5047328;28;20095;-54
2021/09/14 07:16:04;;;;;;;22.05;13.02;;;;;;;;;;5055358;28;20033;-53
2021/09/14 07:18:31;;;;;;;29.50;16.65;;;;;;;;;;5055767;28;20025;-54
2021/09/14 07:20:57;;;;;;;36.30;18.33;;;;;;;;;;5041730;28;20369;-53
2021/09/14 07:23:23;;;;;;;27.38;15.55;;;;;;;;;;5035977;28;20427;-53
2021/09/14 07:25:49;;;;;;;24.65;14.20;;;;;;;;;;5034612;28;20021;-54
2021/09/14 07:28:15;;;;;;;28.75;13.88;;;;;;;;;;5044119;28;20067;-54
2021/09/14 07:30:42;;;;;;;38.15;16.33;;;;;;;;;;5055362;28;20051;-54
2021/09/14 07:33:09;;;;;;;25.58;12.68;;;;;;;;;;5055417;28;20037;-53
2021/09/14 07:35:35;;;;;;;20.60;12.27;;;;;;;;;;5044334;28;20029;-54
2021/09/14 07:38:01;;;;;;;50.15;24.05;;;;;;;;;;5035820;28;20072;-54
2021/09/14 07:40:27;;;;;;;49.70;23.83;;;;;;;;;;5035021;28;20021;-54
2021/09/14 07:42:54;;;;;;;61.85;24.75;;;;;;;;;;5035382;28;20347;-53
2021/09/14 07:45:20;;;;;;;50.30;22.63;;;;;;;;;;5034005;28;20022;-53
2021/09/14 07:47:46;;;;;;;48.83;21.50;;;;;;;;;;5035508;28;20358;-53
2021/09/14 07:50:12;;;;;;;46.80;21.30;;;;;;;;;;5035324;28;20033;-53
2021/09/14 07:52:38;;;;;;;51.95;21.17;;;;;;;;;;5053512;28;20078;-53
2021/09/14 07:55:05;;;;;;;44.38;21.35;;;;;;;;;;5053101;28;20499;-54
2021/09/14 07:57:31;;;;;;;28.25;14.23;;;;;;;;;;5052719;28;20366;-54
2021/09/14 07:59:57;;;;;;;24.67;10.68;;;;;;;;;;5055374;28;20031;-53
2021/09/14 08:02:23;;;;;;;21.15;10.25;;;;;;;;;;5054141;28;20475;-54
2021/09/14 08:04:49;;;;;;;23.45;10.80;;;;;;;;;;5052278;28;20036;-54
2021/09/14 08:07:15;;;;;;;15.98;7.32;;;;;;;;;;5032380;28;20029;-51
2021/09/14 08:09:41;;;;;;;19.63;8.13;;;;;;;;;;5034011;28;20013;-52
2021/09/14 08:12:07;;;;;;;14.35;7.28;;;;;;;;;;5034263;28;20060;-52
2021/09/14 08:14:33;;;;;;;17.25;8.57;;;;;;;;;;5034199;28;20346;-52
2021/09/14 08:16:59;;;;;;;13.52;8.23;;;;;;;;;;5034338;28;20049;-52
2021/09/14 08:19:25;;;;;;;17.08;6.95;;;;;;;;;;5034920;28;20431;-52
2021/09/14 08:21:53;;;;;;;21.50;7.88;;;;;;;;;;5032848;28;20066;-52
2021/09/14 08:24:19;;;;;;;12.73;7.28;;;;;;;;;;5034124;28;20029;-52
2021/09/14 08:26:46;;;;;;;15.32;7.30;;;;;;;;;;5034592;28;20043;-53
2021/09/14 08:29:12;;;;;;;14.90;7.50;;;;;;;;;;5050972;28;20354;-52
2021/09/14 08:31:38;;;;;;;11.88;5.43;;;;;;;;;;5054349;28;20029;-52
2021/09/14 08:34:05;;;;;;;13.30;6.95;;;;;;;;;;5053784;28;20450;-51
2021/09/14 08:36:31;;;;;;;16.02;7.22;;;;;;;;;;5039667;28;20266;-52
2021/09/14 08:38:57;;;;;;;15.13;8.13;;;;;;;;;;5034460;28;20337;-52
2021/09/14 08:41:23;;;;;;;12.68;6.97;;;;;;;;;;5034168;28;20472;-52
2021/09/14 08:43:51;;;;;;;13.60;6.78;;;;;;;;;;5046653;28;20135;-52
2021/09/14 08:46:18;;;;;;;14.88;6.30;;;;;;;;;;5053805;28;20017;-52
2021/09/14 08:48:45;;;;;;;10.48;6.05;;;;;;;;;;5053933;28;20087;-52
2021/09/14 08:51:11;;;;;;;11.75;6.20;;;;;;;;;;5043783;28;20033;-52
2021/09/14 08:53:37;;;;;;;8.50;5.32;;;;;;;;;;5033142;28;20037;-52
2021/09/14 08:56:04;;;;;;;11.90;4.72;;;;;;;;;;5033940;28;20032;-52
2021/09/14 08:58:30;;;;;;;19.50;6.25;;;;;;;;;;5045130;28;20035;-52
2021/09/14 09:00:56;;;;;;;12.38;6.60;;;;;;;;;;5053565;28;20017;-52
2021/09/14 09:03:28;;;;;;;10.30;5.50;;;;;;;;;;5053635;28;20091;-52
2021/09/14 09:05:54;;;;;;;9.63;4.93;;;;;;;;;;5046966;28;20091;-52
2021/09/14 09:08:22;;;;;;;13.00;4.85;;;;;;;;;;5034111;28;20025;-52
2021/09/14 09:11:01;;;;;;;9.27;5.05;;;;;;;;;;5032536;28;20080;-52
2021/09/14 09:13:29;;;;;;;7.32;4.95;;;;;;;;;;5035743;28;20050;-52
2021/09/14 09:15:55;;;;;;;8.25;5.53;;;;;;;;;;5053183;28;20439;-52
2021/09/14 09:18:21;;;;;;;8.57;5.10;;;;;;;;;;5054017;28;20039;-51
2021/09/14 09:20:48;;;;;;;7.82;5.32;;;;;;;;;;5048925;28;20034;-52
2021/09/14 09:23:19;;;;;;;7.20;4.65;;;;;;;;;;5033717;28;20191;-51
2021/09/14 09:25:45;;;;;;;11.90;4.35;;;;;;;;;;5032876;28;20128;-52
2021/09/14 09:28:29;;;;;;;9.13;5.40;;;;;;;;;;5033337;28;20474;-52
2021/09/14 09:30:57;;;;;;;9.02;5.38;;;;;;;;;;5053608;28;20025;-52
2021/09/14 09:33:27;;;;;;;9.43;4.97;;;;;;;;;;5052684;28;20055;-52
2021/09/14 09:35:59;;;;;;;9.88;5.03;;;;;;;;;;5048700;28;20111;-52
2021/09/14 09:38:25;;;;;;;7.53;4.78;;;;;;;;;;5033524;28;20021;-52
2021/09/14 09:40:51;;;;;;;9.90;4.88;;;;;;;;;;5033059;28;20455;-52
2021/09/14 09:43:26;;;;;;;13.70;5.15;;;;;;;;;;5033654;28;20076;-52
2021/09/14 09:45:52;;;;;;;13.35;4.38;;;;;;;;;;5052274;28;20021;-52
2021/09/14 09:48:18;;;;;;;12.98;5.43;;;;;;;;;;5053046;28;20099;-51
2021/09/14 09:50:44;;;;;;;13.80;5.72;;;;;;;;;;5050509;28;20104;-52
2021/09/14 09:53:11;;;;;;;11.38;5.95;;;;;;;;;;5033121;28;20123;-51
2021/09/14 09:55:38;;;;;;;9.07;5.10;;;;;;;;;;5032180;28;20125;-52
2021/09/14 09:58:07;;;;;;;11.73;4.60;;;;;;;;;;5032694;28;20040;-51
2021/09/14 10:00:40;;;;;;;7.68;4.18;;;;;;;;;;5053073;28;20071;-51
2021/09/14 10:03:09;;;;;;;10.20;4.28;;;;;;;;;;5052745;28;20033;-51
2021/09/14 10:05:36;;;;;;;8.63;4.50;;;;;;;;;;5052213;28;20075;-51
2021/09/14 10:08:05;;;;;;;10.27;4.63;;;;;;;;;;5032596;28;20264;-51
2021/09/14 10:10:35;;;;;;;7.75;4.35;;;;;;;;;;5033088;28;20028;-51
2021/09/14 10:13:05;;;;;;;10.38;4.38;;;;;;;;;;5032415;28;20506;-52
2021/09/14 10:15:57;;;;;;;6.45;4.00;;;;;;;;;;5051582;28;20116;-51
2021/09/14 10:18:27;;;;;;;8.00;4.43;;;;;;;;;;5051790;28;20044;-52
2021/09/14 10:20:53;;;;;;;10.93;3.95;;;;;;;;;;5050815;28;20040;-52
2021/09/14 10:23:21;;;;;;;9.90;4.15;;;;;;;;;;5032439;28;20040;-52
2021/09/14 10:25:51;;;;;;;6.80;3.83;;;;;;;;;;5032214;28;20028;-52
2021/09/14 10:28:18;;;;;;;7.22;4.13;;;;;;;;;;5033398;28;20029;-52
2021/09/14 10:30:45;;;;;;;6.43;4.28;;;;;;;;;;5052115;28;20083;-51
2021/09/14 10:33:21;;;;;;;7.60;4.68;;;;;;;;;;5052373;28;20041;-52
2021/09/14 10:35:47;;;;;;;8.45;3.88;;;;;;;;;;5051840;28;20029;-52
2021/09/14 10:38:14;;;;;;;6.57;3.72;;;;;;;;;;5033171;28;20030;-52
2021/09/14 10:40:40;;;;;;;7.45;4.47;;;;;;;;;;5032462;28;20447;-51
2021/09/14 10:43:06;;;;;;;11.70;4.25;;;;;;;;;;5032421;28;20109;-51
2021/09/14 10:45:40;;;;;;;8.93;4.15;;;;;;;;;;5054054;28;20352;-52
2021/09/14 10:48:18;;;;;;;8.73;4.70;;;;;;;;;;5056359;28;20017;-52
2021/09/14 10:50:43;;;;;;;6.80;4.63;;;;;;;;;;5056710;28;20075;-52
2021/09/14 10:53:09;;;;;;;10.15;5.00;;;;;;;;;;5037992;28;20069;-52
2021/09/14 10:55:39;;;;;;;8.63;5.50;;;;;;;;;;5035902;28;20032;-52
2021/09/14 10:58:05;;;;;;;7.75;4.25;;;;;;;;;;5039889;28;20078;-52
2021/09/14 11:00:33;;;;;;;7.78;5.07;;;;;;;;;;5051705;28;20025;-52
2021/09/14 11:03:00;;;;;;;13.18;5.55;;;;;;;;;;5055101;28;20021;-52
2021/09/14 11:05:27;;;;;;;8.68;4.60;;;;;;;;;;5054877;28;20029;-52
2021/09/14 11:08:00;;;;;;;10.43;5.13;;;;;;;;;;5041057;28;20613;-52
2021/09/14 11:10:33;;;;;;;9.52;4.57;;;;;;;;;;5035771;28;20466;-52
2021/09/14 11:12:59;;;;;;;13.50;5.38;;;;;;;;;;5035155;28;20459;-52
2021/09/14 11:15:26;;;;;;;10.85;6.10;;;;;;;;;;5053316;28;20354;-51
2021/09/14 11:17:51;;;;;;;10.27;4.20;;;;;;;;;;5055675;28;20040;-51
2021/09/14 11:20:19;;;;;;;8.02;4.97;;;;;;;;;;5056238;28;20385;-52
2021/09/14 11:22:46;;;;;;;7.00;4.05;;;;;;;;;;5043170;28;20048;-52
2021/09/14 11:25:14;;;;;;;20.48;7.13;;;;;;;;;;5034030;28;20021;-52
2021/09/14 11:27:40;;;;;;;10.48;5.97;;;;;;;;;;5035651;28;20037;-52
2021/09/14 11:30:07;;;;;;;17.15;5.55;;;;;;;;;;5051375;28;20120;-52
2021/09/14 11:32:33;;;;;;;23.67;5.15;;;;;;;;;;5055622;28;20090;-52
2021/09/14 11:34:59;;;;;;;15.02;6.18;;;;;;;;;;5054803;28;20067;-52
2021/09/14 11:37:26;;;;;;;15.10;6.43;;;;;;;;;;5047147;28;20029;-52
2021/09/14 11:39:52;;;;;;;8.10;4.60;;;;;;;;;;5035569;28;20410;-52
2021/09/14 11:42:18;;;;;;;10.60;5.45;;;;;;;;;;5034912;28;20093;-52
2021/09/14 11:44:44;;;;;;;14.07;6.43;;;;;;;;;;5047130;28;20079;-52
2021/09/14 11:47:10;;;;;;;8.95;5.20;;;;;;;;;;5053610;28;20029;-52
2021/09/14 11:49:36;;;;;;;14.98;5.70;;;;;;;;;;5055130;28;20340;-52
2021/09/14 11:52:03;;;;;;;8.55;4.72;;;;;;;;;;5050801;28;20522;-52
2021/09/14 11:54:33;;;;;;;8.05;5.00;;;;;;;;;;5034312;28;20090;-52
2021/09/14 11:56:59;;;;;;;10.20;5.18;;;;;;;;;;5035527;28;20033;-52
2021/09/14 11:59:30;;;;;;;9.15;4.93;;;;;;;;;;5045161;28;20132;-52
2021/09/14 12:01:56;;;;;;;9.10;5.85;;;;;;;;;;5054939;28;20044;-52
2021/09/14 12:04:22;;;;;;;13.25;5.85;;;;;;;;;;5054554;28;20029;-52
2021/09/14 12:06:52;;;;;;;11.02;5.60;;;;;;;;;;5053068;28;20461;-52
2021/09/14 12:09:19;;;;;;;10.85;6.07;;;;;;;;;;5035165;28;20021;-53
2021/09/14 12:11:45;;;;;;;8.00;4.65;;;;;;;;;;5034598;28;20033;-52
2021/09/14 12:14:12;;;;;;;14.05;4.78;;;;;;;;;;5041328;28;20134;-52
2021/09/14 12:16:40;;;;;;;10.00;5.15;;;;;;;;;;5054530;28;20549;-52
2021/09/14 12:19:06;;;;;;;9.65;4.72;;;;;;;;;;5054376;28;20040;-52
2021/09/14 12:21:33;;;;;;;10.95;5.15;;;;;;;;;;5044820;28;20025;-52
2021/09/14 12:23:59;;;;;;;10.13;3.65;;;;;;;;;;5041196;28;20071;-52
2021/09/14 12:26:26;;;;;;;8.05;4.30;;;;;;;;;;5038682;28;20027;-52
2021/09/14 12:28:54;;;;;;;6.63;3.67;;;;;;;;;;5044108;28;20044;-52
2021/09/14 12:31:20;;;;;;;7.15;4.10;;;;;;;;;;5043918;28;20075;-52
2021/09/14 12:33:46;;;;;;;8.00;4.75;;;;;;;;;;5043933;28;20400;-52
2021/09/14 12:36:12;;;;;;;8.68;4.47;;;;;;;;;;5041965;28;20056;-52
2021/09/14 12:38:39;;;;;;;6.13;4.35;;;;;;;;;;5036689;28;20029;-52
2021/09/14 12:41:05;;;;;;;9.48;4.43;;;;;;;;;;5034665;28;20026;-52
2021/09/14 12:43:31;;;;;;;7.30;4.47;;;;;;;;;;5036018;28;20406;-52
2021/09/14 12:45:58;;;;;;;7.65;4.07;;;;;;;;;;5053695;28;20028;-52
2021/09/14 12:48:24;;;;;;;8.30;3.65;;;;;;;;;;5053816;28;20021;-52
2021/09/14 12:50:50;;;;;;;10.10;3.75;;;;;;;;;;5053832;28;20466;-52
2021/09/14 12:53:16;;;;;;;6.25;3.20;;;;;;;;;;5043367;28;20037;-52
2021/09/14 12:55:42;;;;;;;4.10;3.05;;;;;;;;;;5033575;28;20045;-51
2021/09/14 12:58:08;;;;;;;9.38;3.05;;;;;;;;;;5034205;28;20030;-52
2021/09/14 13:00:35;;;;;;;9.30;2.90;;;;;;;;;;5045427;28;20024;-52
2021/09/14 13:03:01;;;;;;;25.30;3.50;;;;;;;;;;5054010;28;20133;-52
2021/09/14 13:05:28;;;;;;;9.55;2.72;;;;;;;;;;5052897;28;20698;-52
2021/09/14 13:07:55;;;;;;;3.70;2.85;;;;;;;;;;5046959;28;20083;-52
2021/09/14 13:10:21;;;;;;;11.02;3.38;;;;;;;;;;5047826;28;20102;-52
2021/09/14 13:12:49;;;;;;;9.15;3.17;;;;;;;;;;5053760;28;20029;-52
2021/09/14 13:18:00;;;;;;;6.85;2.80;;;;;;;;;;5053515;28;20183;-52
2021/09/14 13:20:27;;;;;;;6.95;3.45;;;;;;;;;;5044025;28;20516;-52
2021/09/14 13:22:54;;;;;;;5.00;3.10;;;;;;;;;;5037062;28;20026;-52
2021/09/14 13:25:21;;;;;;;4.13;3.03;;;;;;;;;;5032602;28;20033;-52
2021/09/14 13:27:47;;;;;;;10.52;3.47;;;;;;;;;;5033446;28;20035;-52
2021/09/14 13:30:13;;;;;;;3.65;2.88;;;;;;;;;;5047687;28;20033;-52
2021/09/14 13:32:39;;;;;;;5.88;3.60;;;;;;;;;;5053023;28;20068;-52
2021/09/14 13:35:06;;;;;;;5.35;2.88;;;;;;;;;;5045462;28;20105;-52
2021/09/14 13:37:32;;;;;;;5.63;3.10;;;;;;;;;;5044995;28;20040;-52
2021/09/14 13:39:59;;;;;;;4.32;3.15;;;;;;;;;;5032829;28;20458;-52
2021/09/14 13:42:26;;;;;;;6.90;3.40;;;;;;;;;;5032916;28;20022;-52
2021/09/14 13:47:20;;;;;;;4.53;3.17;;;;;;;;;;5052960;28;20108;-52
2021/09/14 13:49:46;;;;;;;4.03;2.72;;;;;;;;;;5052736;28;20344;-52
2021/09/14 13:52:12;;;;;;;6.15;3.10;;;;;;;;;;5052868;28;20064;-52
2021/09/14 13:54:38;;;;;;;11.55;3.33;;;;;;;;;;5034465;28;20466;-52
2021/09/14 13:57:04;;;;;;;10.07;3.20;;;;;;;;;;5033056;28;20028;-52
2021/09/14 13:59:30;;;;;;;7.22;2.50;;;;;;;;;;5035661;28;20115;-52
2021/09/14 14:01:57;;;;;;;11.88;2.92;;;;;;;;;;5052216;28;20056;-52
2021/09/14 14:04:23;;;;;;;9.05;3.00;;;;;;;;;;5052228;28;20052;-52
2021/09/14 14:06:50;;;;;;;5.65;3.30;;;;;;;;;;5050705;28;20017;-52
2021/09/14 14:09:16;;;;;;;6.28;3.20;;;;;;;;;;5039645;28;20025;-52
2021/09/14 14:11:42;;;;;;;5.25;3.25;;;;;;;;;;5032581;28;20109;-52
2021/09/14 14:14:08;;;;;;;8.15;3.03;;;;;;;;;;5031772;28;20128;-52
2021/09/14 14:16:35;;;;;;;4.97;3.28;;;;;;;;;;5052358;28;20023;-52
2021/09/14 14:19:01;;;;;;;5.45;3.30;;;;;;;;;;5052409;28;20108;-52
2021/09/14 14:21:27;;;;;;;9.82;3.55;;;;;;;;;;5051490;28;20060;-52
2021/09/14 14:23:53;;;;;;;5.50;3.17;;;;;;;;;;5041947;28;20098;-52
2021/09/14 14:26:21;;;;;;;9.15;3.67;;;;;;;;;;5031975;28;20033;-52
2021/09/14 14:28:47;;;;;;;4.30;3.00;;;;;;;;;;5032050;28;20163;-52
2021/09/14 14:31:13;;;;;;;3.65;2.70;;;;;;;;;;5043271;28;20064;-52
2021/09/14 14:33:39;;;;;;;8.98;3.30;;;;;;;;;;5038840;28;20355;-52
2021/09/14 14:36:06;;;;;;;5.50;3.03;;;;;;;;;;5032396;28;20303;-52
2021/09/14 14:38:37;;;;;;;12.48;3.20;;;;;;;;;;5031469;28;20037;-52
2021/09/14 14:41:03;;;;;;;4.07;2.58;;;;;;;;;;5032156;28;20053;-52
2021/09/14 14:43:29;;;;;;;12.00;3.42;;;;;;;;;;5031620;28;20478;-52
2021/09/14 14:45:55;;;;;;;10.48;3.88;;;;;;;;;;5045851;28;20067;-52
2021/09/14 14:48:21;;;;;;;4.50;2.90;;;;;;;;;;5051338;28;20029;-52
2021/09/14 14:50:48;;;;;;;6.70;3.20;;;;;;;;;;5051466;28;20347;-52
2021/09/14 14:53:15;;;;;;;9.20;4.57;;;;;;;;;;5050534;28;20029;-52
2021/09/14 14:55:41;;;;;;;18.50;8.27;;;;;;;;;;5031191;28;20036;-52
2021/09/14 14:58:07;;;;;;;28.08;9.65;;;;;;;;;;5032065;28;20362;-52
2021/09/14 15:00:33;;;;;;;23.75;7.95;;;;;;;;;;5043795;28;20347;-52
2021/09/14 15:02:59;;;;;;;12.25;6.13;;;;;;;;;;5051733;28;20025;-52
2021/09/14 15:05:25;;;;;;;7.47;4.53;;;;;;;;;;5051165;28;20361;-51
2021/09/14 15:07:51;;;;;;;9.55;4.68;;;;;;;;;;5051788;28;20025;-52
2021/09/14 15:10:17;;;;;;;7.70;4.28;;;;;;;;;;5034302;28;20018;-51
2021/09/14 15:12:43;;;;;;;9.95;3.13;;;;;;;;;;5032254;28;20116;-51
2021/09/14 15:15:10;;;;;;;5.78;3.70;;;;;;;;;;5039609;28;20057;-52
2021/09/14 15:17:37;;;;;;;3.55;2.55;;;;;;;;;;5052100;28;20029;-52
2021/09/14 15:20:04;;;;;;;5.45;2.92;;;;;;;;;;5051669;28;20324;-52
2021/09/14 15:22:30;;;;;;;3.90;2.65;;;;;;;;;;5046453;28;20045;-52
2021/09/14 15:24:56;;;;;;;4.03;2.83;;;;;;;;;;5036466;28;20140;-52
2021/09/14 15:27:23;;;;;;;5.15;2.70;;;;;;;;;;5034094;28;20037;-52
2021/09/14 15:29:49;;;;;;;4.43;2.90;;;;;;;;;;5038127;28;20028;-52
2021/09/14 15:32:15;;;;;;;4.18;2.58;;;;;;;;;;5055199;28;20362;-51